Time;durP1;ratioP1;P1;durP2;ratioP2;P2;SDS_P1;SDS_P2;PMS_P1;PMS_P2;Temp;Humidity;BMP_temperature;BMP_pressure;BME280_temperature;BME280_humidity;BME280_pressure;Samples;Min_cycle;Max_cycle;Signal;HPM_P1;HPM_P2
2021/03/24 00:01:46;;;;;;;29.55;20.45;;;7.70;99.90;;;;;;4998647;28;20387;-86
2021/03/24 00:04:32;;;;;;;30.48;19.77;;;7.70;99.90;;;;;;4997608;28;20072;-87
2021/03/24 00:07:18;;;;;;;36.88;21.23;;;7.70;99.90;;;;;;4965409;28;20523;-87
2021/03/24 00:10:05;;;;;;;38.97;20.90;;;7.80;99.90;;;;;;4978869;28;20043;-87
2021/03/24 00:12:55;;;;;;;36.83;21.58;;;7.80;99.90;;;;;;4978792;28;20112;-87
2021/03/24 00:15:41;;;;;;;32.75;22.10;;;7.80;99.90;;;;;;4977963;28;20625;-87
2021/03/24 00:18:29;;;;;;;33.28;21.08;;;7.80;99.90;;;;;;4964931;28;20058;-87
2021/03/24 00:21:14;;;;;;;36.67;19.70;;;7.70;99.90;;;;;;4978842;28;20050;-87
2021/03/24 00:24:00;;;;;;;39.00;21.52;;;7.70;99.90;;;;;;4954238;28;20583;-87
2021/03/24 00:26:46;;;;;;;33.60;21.10;;;7.70;99.90;;;;;;4978305;28;20050;-87
2021/03/24 00:29:32;;;;;;;28.15;19.98;;;7.70;99.90;;;;;;4977836;28;20406;-87
2021/03/24 00:32:18;;;;;;;34.97;21.38;;;7.80;99.90;;;;;;4978715;28;20050;-87
2021/03/24 00:35:06;;;;;;;36.08;21.73;;;7.80;99.90;;;;;;4975116;28;20557;-87
2021/03/24 00:37:52;;;;;;;40.63;21.73;;;7.80;99.90;;;;;;4978831;28;20054;-87
2021/03/24 00:40:40;;;;;;;39.28;21.45;;;7.80;99.90;;;;;;4977855;28;20070;-86
2021/03/24 00:43:27;;;;;;;40.33;22.08;;;7.80;99.90;;;;;;4981234;28;20038;-87
2021/03/24 00:46:13;;;;;;;36.08;22.13;;;7.80;99.90;;;;;;4984555;28;20418;-88
2021/03/24 00:48:59;;;;;;;36.53;21.85;;;7.90;99.90;;;;;;4997638;28;20493;-87
2021/03/24 00:51:45;;;;;;;44.80;22.63;;;7.80;99.90;;;;;;4983078;28;20559;-87
2021/03/24 00:54:31;;;;;;;44.35;24.10;;;7.90;99.90;;;;;;4983429;28;20090;-86
2021/03/24 00:57:16;;;;;;;43.67;24.38;;;7.90;99.90;;;;;;4996427;28;20673;-86
2021/03/24 01:00:05;;;;;;;47.28;22.73;;;7.80;99.90;;;;;;4984124;28;20160;-86
2021/03/24 01:02:52;;;;;;;43.88;25.33;;;7.80;99.90;;;;;;4997292;28;20046;-86
2021/03/24 01:05:39;;;;;;;44.45;25.50;;;7.80;99.90;;;;;;4954490;28;20038;-86
2021/03/24 01:08:25;;;;;;;46.42;27.17;;;7.90;99.90;;;;;;4984227;28;20104;-87
2021/03/24 01:11:11;;;;;;;51.40;28.27;;;7.90;99.90;;;;;;4983825;28;20061;-86
2021/03/24 01:13:57;;;;;;;50.90;29.27;;;7.80;99.90;;;;;;4976463;28;20062;-88
2021/03/24 01:16:43;;;;;;;51.55;28.40;;;7.80;99.90;;;;;;4963094;28;20403;-87
2021/03/24 01:19:29;;;;;;;56.28;30.98;;;7.80;99.90;;;;;;4964097;28;20509;-86
2021/03/24 01:22:14;;;;;;;51.10;30.58;;;7.80;99.90;;;;;;4972751;28;20402;-88
2021/03/24 01:25:00;;;;;;;55.95;30.50;;;7.80;99.90;;;;;;4973561;28;20047;-88
2021/03/24 01:27:47;;;;;;;47.67;29.77;;;7.80;99.90;;;;;;4979500;28;20140;-87
2021/03/24 01:30:33;;;;;;;54.67;29.83;;;7.80;99.90;;;;;;4976982;28;20069;-86
2021/03/24 01:33:19;;;;;;;56.03;31.40;;;7.80;99.90;;;;;;4992370;28;20100;-86
2021/03/24 01:36:06;;;;;;;54.55;32.60;;;7.80;99.90;;;;;;4983561;28;20116;-87
2021/03/24 01:38:52;;;;;;;58.50;32.70;;;7.80;99.90;;;;;;4996330;28;20045;-87
2021/03/24 01:41:38;;;;;;;55.88;31.88;;;7.80;99.90;;;;;;4960683;28;20086;-86
2021/03/24 01:44:25;;;;;;;57.55;31.63;;;7.70;99.90;;;;;;4944836;28;20089;-87
2021/03/24 01:47:12;;;;;;;57.08;32.15;;;7.80;99.90;;;;;;4954250;28;20049;-86
2021/03/24 01:49:58;;;;;;;53.78;31.17;;;7.80;99.90;;;;;;4968396;28;20072;-86
2021/03/24 01:52:44;;;;;;;59.85;33.30;;;7.80;99.90;;;;;;4985027;28;20115;-87
2021/03/24 01:55:31;;;;;;;61.67;31.77;;;7.80;99.90;;;;;;4996190;28;20224;-84
2021/03/24 01:58:16;;;;;;;53.95;29.83;;;7.80;99.90;;;;;;4996333;28;20486;-87
2021/03/24 02:01:10;;;;;;;52.42;31.38;;;7.80;99.90;;;;;;4982677;28;20585;-87
2021/03/24 02:03:56;;;;;;;57.33;30.80;;;7.80;99.90;;;;;;4982294;28;20050;-87
2021/03/24 02:07:09;;;;;;;54.20;30.70;;;7.80;99.90;;;;;;4968299;28;20064;-88
2021/03/24 02:10:05;;;;;;;46.50;29.10;;;7.70;99.90;;;;;;4995367;28;20061;-87
2021/03/24 02:12:58;;;;;;;51.28;29.63;;;7.80;99.90;;;;;;4995075;28;20050;-87
2021/03/24 02:16:07;;;;;;;56.63;30.58;;;7.80;99.90;;;;;;4995456;28;20092;-87
2021/03/24 02:18:55;;;;;;;58.83;31.75;;;7.80;99.90;;;;;;4995178;28;20089;-87
2021/03/24 02:21:43;;;;;;;62.10;31.35;;;7.80;99.90;;;;;;4995363;28;20092;-87
2021/03/24 02:24:52;;;;;;;50.72;29.52;;;7.70;99.90;;;;;;4982224;28;20050;-88
2021/03/24 02:27:46;;;;;;;56.85;31.55;;;7.80;99.90;;;;;;4995185;28;20050;-87
2021/03/24 02:30:35;;;;;;;48.63;29.45;;;7.70;99.90;;;;;;4982106;28;20049;-87
2021/03/24 02:33:26;;;;;;;52.03;30.27;;;7.70;99.90;;;;;;4995503;28;20046;-87
2021/03/24 02:36:14;;;;;;;61.40;32.45;;;7.70;99.90;;;;;;4995939;28;20375;-87
2021/03/24 02:39:06;;;;;;;50.13;31.45;;;7.70;99.90;;;;;;4995081;28;20045;-87
2021/03/24 02:41:54;;;;;;;64.70;32.13;;;7.70;99.90;;;;;;4994701;28;20529;-86
2021/03/24 02:44:42;;;;;;;58.15;32.67;;;7.70;99.90;;;;;;4994521;28;20046;-86
2021/03/24 02:47:28;;;;;;;61.85;32.60;;;7.70;99.90;;;;;;4995661;28;20050;-87
2021/03/24 02:50:15;;;;;;;56.17;32.03;;;7.70;99.90;;;;;;4981890;28;20046;-87
2021/03/24 02:53:01;;;;;;;61.28;32.45;;;7.70;99.90;;;;;;4961779;28;20054;-87
2021/03/24 02:55:47;;;;;;;69.88;34.88;;;7.70;99.90;;;;;;4975124;28;20145;-87
2021/03/24 02:58:34;;;;;;;59.22;31.55;;;7.60;99.90;;;;;;4976111;28;20047;-87
2021/03/24 03:01:24;;;;;;;67.80;35.03;;;7.60;99.90;;;;;;4983248;28;20149;-86
2021/03/24 03:04:18;;;;;;;63.65;34.13;;;7.60;99.90;;;;;;4981674;28;20053;-87
2021/03/24 03:07:19;;;;;;;57.80;33.72;;;7.70;99.90;;;;;;4994825;28;20145;-87
2021/03/24 03:10:25;;;;;;;58.50;33.50;;;7.60;99.90;;;;;;4995227;28;20057;-86
2021/03/24 03:13:25;;;;;;;61.47;33.53;;;7.60;99.90;;;;;;4981951;28;20061;-87
2021/03/24 03:16:35;;;;;;;60.45;34.67;;;7.60;99.90;;;;;;4995046;28;20100;-87
2021/03/24 03:19:34;;;;;;;;;;;7.60;99.90;;;;;;4995483;28;20050;-87
2021/03/24 03:22:27;;;;;;;61.63;34.90;;;7.60;99.90;;;;;;4994536;28;20369;-87
2021/03/24 03:25:21;;;;;;;59.75;34.35;;;7.60;99.90;;;;;;4994755;28;20046;-87
2021/03/24 03:28:14;;;;;;;63.20;34.35;;;7.60;99.90;;;;;;4991994;28;20053;-86
2021/03/24 03:31:02;;;;;;;61.38;34.08;;;7.50;99.90;;;;;;5007743;28;20590;-87
2021/03/24 03:33:51;;;;;;;62.25;34.92;;;7.50;99.90;;;;;;4994333;28;20140;-88
2021/03/24 03:36:40;;;;;;;61.88;33.88;;;7.50;99.90;;;;;;4981621;28;20050;-88
2021/03/24 03:39:29;;;;;;;61.93;36.67;;;7.50;99.90;;;;;;4988907;28;20054;-88
2021/03/24 03:42:15;;;;;;;58.88;34.30;;;7.40;99.90;;;;;;4975595;28;20050;-86
2021/03/24 03:45:01;;;;;;;61.72;38.30;;;7.50;99.90;;;;;;4961350;28;20085;-87
2021/03/24 03:47:47;;;;;;;61.30;37.33;;;7.40;99.90;;;;;;4948146;28;20124;-87
2021/03/24 03:50:33;;;;;;;64.22;35.95;;;7.40;99.90;;;;;;4961981;28;20142;-88
2021/03/24 03:53:55;;;;;;;68.55;37.35;;;7.40;99.90;;;;;;4975280;28;20054;-87
2021/03/24 03:57:00;;;;;;;63.83;36.40;;;7.30;99.90;;;;;;4982328;28;20433;-87
2021/03/24 04:00:22;;;;;;;69.85;38.63;;;7.30;99.90;;;;;;4993956;28;20383;-87
2021/03/24 04:03:16;;;;;;;64.00;37.50;;;7.20;99.90;;;;;;4980888;28;20050;-87
2021/03/24 04:06:09;;;;;;;74.15;39.10;;;7.20;99.90;;;;;;4993784;28;20083;-88
2021/03/24 04:08:56;;;;;;;71.43;36.70;;;7.10;99.90;;;;;;4979958;28;20485;-87
2021/03/24 04:11:45;;;;;;;70.13;39.72;;;7.10;99.90;;;;;;4980872;28;20073;-85
2021/03/24 04:14:31;;;;;;;73.05;38.53;;;7.00;99.90;;;;;;4981145;28;20116;-86
2021/03/24 04:17:21;;;;;;;62.20;36.10;;;7.00;99.90;;;;;;4994388;28;20046;-86
2021/03/24 04:20:09;;;;;;;62.78;37.97;;;7.00;99.90;;;;;;4999723;28;20188;-86
2021/03/24 04:22:56;;;;;;;75.65;39.05;;;7.00;99.90;;;;;;4974631;28;20046;-86
2021/03/24 04:25:54;;;;;;;62.90;37.50;;;6.90;99.90;;;;;;4988827;28;20186;-86
2021/03/24 04:28:44;;;;;;;74.05;39.05;;;6.90;99.90;;;;;;4963102;28;20483;-86
2021/03/24 04:31:31;;;;;;;71.88;38.53;;;6.80;99.90;;;;;;4978614;28;20054;-86
2021/03/24 04:34:18;;;;;;;71.55;40.28;;;6.70;99.90;;;;;;4978423;28;20491;-85
2021/03/24 04:37:54;;;;;;;69.40;40.00;;;6.70;99.90;;;;;;4973274;28;20123;-86
2021/03/24 04:40:50;;;;;;;72.65;39.80;;;6.60;99.90;;;;;;4984500;28;20068;-85
2021/03/24 04:43:40;;;;;;;70.70;38.58;;;6.60;99.90;;;;;;5011643;28;20054;-85
2021/03/24 04:46:31;;;;;;;79.28;42.70;;;6.50;99.90;;;;;;4997767;28;20108;-86
2021/03/24 04:49:25;;;;;;;70.00;39.30;;;6.40;99.90;;;;;;4997231;28;20046;-87
2021/03/24 04:52:12;;;;;;;75.18;41.65;;;6.50;99.90;;;;;;4996889;28;20065;-87
2021/03/24 04:55:07;;;;;;;69.03;40.92;;;6.40;99.90;;;;;;4997288;28;20065;-87
2021/03/24 04:57:56;;;;;;;70.85;40.30;;;6.30;99.90;;;;;;4981478;28;20505;-88
2021/03/24 05:00:53;;;;;;;73.78;41.80;;;6.40;99.90;;;;;;4978118;28;20057;-87
2021/03/24 05:03:42;;;;;;;68.15;39.38;;;6.30;99.90;;;;;;4977996;28;20050;-87
2021/03/24 05:06:31;;;;;;;68.07;39.88;;;6.30;99.90;;;;;;4980941;28;20057;-86
2021/03/24 05:09:17;;;;;;;82.05;43.75;;;6.30;99.90;;;;;;4973493;28;20052;-87
2021/03/24 05:12:06;;;;;;;76.40;43.97;;;6.30;99.90;;;;;;4977201;28;20054;-87
2021/03/24 05:14:57;;;;;;;72.53;41.55;;;6.20;99.90;;;;;;4977040;28;20057;-86
2021/03/24 05:17:44;;;;;;;80.78;43.28;;;6.20;99.90;;;;;;4990254;28;20062;-87
2021/03/24 05:20:39;;;;;;;80.88;43.03;;;6.10;99.90;;;;;;4945067;28;20058;-88
2021/03/24 05:23:25;;;;;;;75.80;42.72;;;6.00;99.90;;;;;;4958466;28;20138;-88
2021/03/24 05:26:31;;;;;;;76.18;42.28;;;5.90;99.90;;;;;;4958289;28;20062;-86
2021/03/24 05:29:22;;;;;;;84.80;45.67;;;5.90;99.90;;;;;;4983102;28;20482;-86
2021/03/24 05:32:17;;;;;;;81.57;44.60;;;5.70;99.90;;;;;;4982540;28;20083;-87
2021/03/24 05:35:21;;;;;;;81.35;44.63;;;5.70;99.90;;;;;;4996055;28;20058;-87
2021/03/24 05:38:21;;;;;;;86.63;45.67;;;5.60;99.90;;;;;;4983685;28;20050;-85
2021/03/24 05:41:09;;;;;;;77.38;43.25;;;5.60;99.90;;;;;;4956415;28;20507;-86
2021/03/24 05:44:29;;;;;;;78.05;42.80;;;5.60;99.90;;;;;;4970666;28;20051;-86
2021/03/24 05:47:30;;;;;;;81.00;42.65;;;5.60;99.90;;;;;;4984717;28;20379;-86
2021/03/24 05:50:34;;;;;;;83.90;44.42;;;5.60;99.90;;;;;;4994747;28;20084;-87
2021/03/24 05:53:39;;;;;;;86.95;44.67;;;5.60;99.90;;;;;;4986373;28;20058;-87
2021/03/24 05:56:39;;;;;;;83.20;45.03;;;5.60;99.90;;;;;;4996436;28;20078;-86
2021/03/24 05:59:38;;;;;;;86.95;46.15;;;5.60;99.90;;;;;;4996843;28;20054;-87
2021/03/24 06:02:42;;;;;;;97.95;47.25;;;5.70;99.90;;;;;;4996857;28;20412;-86
2021/03/24 06:06:01;;;;;;;83.05;45.75;;;5.70;99.90;;;;;;4996713;28;20103;-86
2021/03/24 06:09:16;;;;;;;85.45;45.95;;;5.70;99.90;;;;;;4968021;28;20056;-86
2021/03/24 06:12:22;;;;;;;95.28;47.38;;;5.70;99.90;;;;;;4981681;28;20494;-86
2021/03/24 06:15:29;;;;;;;91.57;47.63;;;5.60;99.90;;;;;;4995435;28;20093;-87
2021/03/24 06:18:40;;;;;;;83.85;46.38;;;5.60;99.90;;;;;;4995026;28;20684;-85
2021/03/24 06:22:02;;;;;;;89.82;47.42;;;5.60;99.90;;;;;;4963132;28;20137;-86
2021/03/24 06:24:51;;;;;;;92.45;48.35;;;5.70;99.90;;;;;;4990020;28;20046;-86
2021/03/24 06:28:22;;;;;;;88.03;47.72;;;5.70;99.90;;;;;;4987149;28;20045;-86
2021/03/24 06:31:29;;;;;;;89.10;47.72;;;5.80;99.90;;;;;;4990305;28;20409;-87
2021/03/24 06:34:49;;;;;;;89.25;50.42;;;5.80;99.90;;;;;;5008773;28;20049;-86
2021/03/24 06:37:35;;;;;;;90.93;49.67;;;5.90;99.90;;;;;;4975605;28;20051;-86
2021/03/24 06:40:39;;;;;;;92.03;50.97;;;5.90;99.90;;;;;;4975775;28;20082;-86
2021/03/24 06:43:50;;;;;;;94.80;49.85;;;5.90;99.90;;;;;;4976319;28;20046;-86
2021/03/24 06:46:54;;;;;;;;;;;5.80;99.90;;;;;;4978475;28;20137;-86
2021/03/24 06:49:49;;;;;;;95.65;50.38;;;5.80;99.90;;;;;;4995585;28;19922;-87
2021/03/24 06:53:03;;;;;;;96.47;50.75;;;5.80;99.90;;;;;;4994625;28;20139;-87
2021/03/24 06:55:57;;;;;;;102.65;52.40;;;5.80;99.90;;;;;;4995486;28;20057;-87
2021/03/24 06:59:05;;;;;;;97.85;49.83;;;5.70;99.90;;;;;;4976502;28;20388;-86
2021/03/24 07:02:23;;;;;;;105.15;52.67;;;5.70;99.90;;;;;;4975712;28;20057;-86
2021/03/24 07:05:25;;;;;;;104.78;53.08;;;5.70;99.90;;;;;;4972226;28;20046;-87
2021/03/24 07:08:44;;;;;;;108.80;53.97;;;5.70;99.90;;;;;;4960706;28;20057;-87
2021/03/24 07:11:52;;;;;;;101.40;52.95;;;5.70;99.90;;;;;;4973465;28;20061;-86
2021/03/24 07:15:09;;;;;;;115.03;54.90;;;5.80;99.90;;;;;;4989340;28;20422;-87
2021/03/24 07:18:13;;;;;;;111.07;54.72;;;5.80;99.90;;;;;;4973366;28;20057;-86
2021/03/24 07:21:26;;;;;;;106.53;55.70;;;5.90;99.90;;;;;;4974716;28;20060;-87
2021/03/24 07:24:17;;;;;;;107.00;52.03;;;5.90;99.90;;;;;;4963787;28;20038;-86
2021/03/24 07:27:41;;;;;;;115.10;56.72;;;6.00;99.90;;;;;;4994749;28;20143;-84
2021/03/24 07:30:58;;;;;;;103.10;54.38;;;6.00;99.90;;;;;;4994336;28;20042;-85
2021/03/24 07:33:57;;;;;;;109.32;56.42;;;6.00;99.90;;;;;;4991421;28;20514;-86
2021/03/24 07:36:49;;;;;;;105.70;56.85;;;6.10;99.90;;;;;;4973831;28;20116;-86
2021/03/24 07:40:14;;;;;;;116.75;58.50;;;6.20;99.90;;;;;;4994953;28;20062;-86
2021/03/24 07:43:06;;;;;;;116.25;58.70;;;6.20;99.90;;;;;;4994769;28;20487;-86
2021/03/24 07:46:34;;;;;;;111.78;57.83;;;6.30;99.90;;;;;;4960645;28;20105;-87
2021/03/24 07:49:36;;;;;;;114.78;59.25;;;6.40;99.90;;;;;;4964147;28;20106;-86
2021/03/24 07:52:48;;;;;;;113.53;56.22;;;6.40;99.90;;;;;;4976542;28;20043;-88
2021/03/24 07:56:01;;;;;;;125.78;59.90;;;6.50;99.90;;;;;;4981496;28;20058;-87
2021/03/24 07:59:11;;;;;;;117.07;57.10;;;6.50;99.90;;;;;;4981643;28;20050;-87
2021/03/24 08:02:30;;;;;;;108.40;54.10;;;6.70;99.90;;;;;;4994828;28;20049;-88
2021/03/24 08:05:31;;;;;;;114.05;58.05;;;6.70;99.90;;;;;;4983938;28;20042;-87
2021/03/24 08:08:45;;;;;;;110.93;54.67;;;6.80;99.90;;;;;;4997590;28;20053;-87
2021/03/24 08:11:52;;;;;;;106.43;56.08;;;6.90;99.90;;;;;;4990322;28;20050;-87
2021/03/24 08:15:00;;;;;;;107.57;58.42;;;6.90;99.90;;;;;;4984874;28;20137;-87
2021/03/24 08:18:03;;;;;;;115.20;57.38;;;7.00;99.90;;;;;;4998516;28;20108;-87
2021/03/24 08:20:31;;;;;;;107.20;53.60;;;7.10;99.90;;;;;;4994794;28;20127;-87
2021/03/24 08:23:41;;;;;;;104.18;54.05;;;7.20;99.90;;;;;;4994727;28;20621;-87
2021/03/24 08:26:25;;;;;;;110.15;57.35;;;7.20;99.90;;;;;;5005772;28;20045;-87
2021/03/24 08:29:28;;;;;;;106.80;55.67;;;7.30;99.90;;;;;;5011611;28;20100;-89
2021/03/24 08:32:12;;;;;;;99.75;53.63;;;7.30;99.90;;;;;;5009947;28;20046;-89
2021/03/24 08:34:57;;;;;;;100.80;54.42;;;7.40;99.90;;;;;;5011347;28;20253;-89
2021/03/24 08:37:54;;;;;;;107.13;53.28;;;7.50;99.90;;;;;;5008576;28;20044;-88
2021/03/24 08:40:49;;;;;;;90.65;49.40;;;7.50;99.90;;;;;;5007445;28;20125;-88
2021/03/24 08:43:42;;;;;;;93.97;50.53;;;7.60;99.90;;;;;;5006967;28;20041;-88
2021/03/24 08:46:32;;;;;;;99.72;52.28;;;7.70;99.90;;;;;;5009845;28;20045;-85
2021/03/24 08:49:08;;;;;;;92.38;46.55;;;7.80;99.90;;;;;;5009227;28;20069;-88
2021/03/24 08:52:02;;;;;;;85.40;45.65;;;7.80;99.90;;;;;;5008301;28;20483;-88
2021/03/24 08:54:46;;;;;;;88.72;47.13;;;7.90;99.90;;;;;;5007932;28;20046;-88
2021/03/24 08:57:33;;;;;;;83.90;46.80;;;8.00;99.90;;;;;;5008792;28;20478;-87
2021/03/24 09:00:28;;;;;;;87.15;47.63;;;8.10;99.90;;;;;;5006285;28;20212;-88
2021/03/24 09:03:01;;;;;;;82.85;46.63;;;8.10;99.90;;;;;;5010214;28;20042;-89
2021/03/24 09:05:50;;;;;;;90.47;46.38;;;8.20;99.90;;;;;;5010544;28;20099;-88
2021/03/24 09:08:34;;;;;;;90.63;48.10;;;8.30;99.90;;;;;;5007178;28;20049;-88
2021/03/24 09:11:29;;;;;;;87.50;47.03;;;8.40;99.90;;;;;;5010684;28;20379;-89
2021/03/24 09:14:07;;;;;;;79.80;43.08;;;8.60;99.90;;;;;;4994488;28;20056;-88
2021/03/24 09:16:44;;;;;;;86.68;45.22;;;8.60;99.90;;;;;;5008188;28;20041;-89
2021/03/24 09:19:31;;;;;;;87.45;45.20;;;8.70;99.90;;;;;;5010288;28;20429;-90
2021/03/24 09:22:38;;;;;;;77.00;40.40;;;8.80;99.90;;;;;;5011258;28;20045;-90
2021/03/24 09:25:20;;;;;;;71.25;38.53;;;8.80;99.90;;;;;;5011424;28;20096;-89
2021/03/24 09:28:24;;;;;;;83.03;42.45;;;8.80;99.90;;;;;;5010971;28;20052;-89
2021/03/24 09:31:13;;;;;;;77.70;42.33;;;8.90;99.90;;;;;;5010777;28;20042;-89
2021/03/24 09:33:47;;;;;;;80.07;41.47;;;9.00;99.90;;;;;;5011109;28;20061;-89
2021/03/24 09:36:39;;;;;;;80.28;40.97;;;9.00;99.90;;;;;;5010628;28;20064;-86
2021/03/24 09:39:17;;;;;;;76.80;41.88;;;9.10;99.90;;;;;;4992536;28;20475;-89
2021/03/24 09:41:52;;;;;;;72.20;40.85;;;9.20;99.90;;;;;;5010254;28;20045;-88
2021/03/24 09:44:26;;;;;;;70.90;39.88;;;9.20;99.90;;;;;;5010238;28;20050;-87
2021/03/24 09:46:54;;;;;;;82.50;39.97;;;9.20;99.90;;;;;;5011019;28;20030;-88
2021/03/24 09:49:38;;;;;;;68.13;37.08;;;9.30;99.90;;;;;;5010319;28;20068;-89
2021/03/24 09:52:15;;;;;;;63.38;35.97;;;9.40;99.90;;;;;;5010548;28;20516;-89
2021/03/24 09:55:03;;;;;;;68.53;36.75;;;9.40;99.90;;;;;;5008396;28;20053;-89
2021/03/24 09:57:47;;;;;;;68.55;37.25;;;9.50;99.90;;;;;;5008369;28;20053;-89
2021/03/24 10:00:17;;;;;;;68.32;36.20;;;9.60;99.90;;;;;;5010753;28;20482;-89
2021/03/24 10:03:15;;;;;;;67.97;34.53;;;9.60;99.90;;;;;;4992718;28;20040;-88
2021/03/24 10:05:49;;;;;;;61.78;35.78;;;9.70;99.90;;;;;;5010270;28;20050;-89
2021/03/24 10:08:50;;;;;;;63.63;33.78;;;9.80;99.90;;;;;;5008761;28;20100;-87
2021/03/24 10:11:24;;;;;;;62.05;31.17;;;9.90;99.90;;;;;;4989910;28;20517;-86
2021/03/24 10:14:12;;;;;;;53.67;30.90;;;9.90;99.90;;;;;;5010990;28;20038;-88
2021/03/24 10:16:44;;;;;;;59.85;29.58;;;10.00;99.90;;;;;;4991795;28;20605;-88
2021/03/24 10:19:19;;;;;;;56.78;29.63;;;10.00;99.90;;;;;;4993025;28;20477;-89
2021/03/24 10:22:21;;;;;;;54.60;33.67;;;10.10;99.90;;;;;;5009870;28;20042;-89
2021/03/24 10:25:11;;;;;;;61.53;29.60;;;10.20;99.90;;;;;;5007474;28;20061;-88
2021/03/24 10:27:45;;;;;;;50.85;26.92;;;10.20;99.90;;;;;;5008727;28;20041;-89
2021/03/24 10:30:13;;;;;;;51.72;30.45;;;10.30;99.90;;;;;;4992518;28;20042;-89
2021/03/24 10:32:50;;;;;;;52.28;28.83;;;10.40;99.90;;;;;;5008932;28;20042;-89
2021/03/24 10:36:02;;;;;;;51.58;28.38;;;10.40;99.90;;;;;;4992607;28;20103;-88
2021/03/24 10:38:49;;;;;;;57.83;29.70;;;10.50;99.90;;;;;;4929059;29;20536;-90
2021/03/24 10:41:28;;;;;;;59.20;31.95;;;10.60;99.90;;;;;;4989420;28;20129;-89
2021/03/24 10:44:12;;;;;;;58.47;30.60;;;10.60;99.90;;;;;;5007150;28;20056;-90
2021/03/24 10:46:43;;;;;;;54.28;29.98;;;10.70;99.90;;;;;;5001754;28;20041;-89
2021/03/24 10:49:27;;;;;;;59.63;30.42;;;10.70;99.90;;;;;;5005878;28;20045;-90
2021/03/24 10:52:18;;;;;;;54.00;31.52;;;10.80;99.90;;;;;;4992136;28;20042;-89
2021/03/24 10:54:45;;;;;;;50.83;27.48;;;10.90;99.90;;;;;;4991378;28;20061;-89
2021/03/24 10:57:30;;;;;;;48.00;26.48;;;11.00;99.90;;;;;;4992284;28;20046;-89
2021/03/24 11:00:17;;;;;;;50.17;28.15;;;11.00;99.90;;;;;;5006232;28;20050;-88
2021/03/24 11:03:15;;;;;;;53.55;26.50;;;11.10;99.90;;;;;;4992160;28;20597;-89
2021/03/24 11:05:49;;;;;;;47.15;27.23;;;11.20;99.90;;;;;;5009206;28;20357;-90
2021/03/24 11:08:30;;;;;;;51.85;27.13;;;11.30;99.90;;;;;;5009678;28;20096;-89
2021/03/24 11:11:12;;;;;;;54.78;27.15;;;11.40;99.90;;;;;;5008515;28;20034;-89
2021/03/24 11:13:47;;;;;;;50.47;27.52;;;11.40;99.90;;;;;;5004475;28;20050;-88
2021/03/24 11:16:20;;;;;;;46.22;25.35;;;11.60;99.90;;;;;;5007764;28;20057;-90
2021/03/24 11:18:51;;;;;;;47.45;25.42;;;11.70;99.90;;;;;;5009009;28;20037;-88
2021/03/24 11:21:29;;;;;;;50.58;27.60;;;11.70;99.90;;;;;;5004372;28;20045;-89
2021/03/24 11:24:08;;;;;;;48.80;26.15;;;11.80;99.90;;;;;;4984092;28;20120;-88
2021/03/24 11:26:44;;;;;;;43.42;24.13;;;11.90;99.90;;;;;;5006763;28;20045;-90
2021/03/24 11:29:13;;;;;;;47.88;25.40;;;11.90;99.90;;;;;;5006990;28;20042;-89
2021/03/24 11:32:03;;;;;;;49.03;27.83;;;12.00;99.90;;;;;;4991060;28;20078;-89
2021/03/24 11:34:47;;;;;;;48.53;25.67;;;12.00;99.90;;;;;;5006417;28;20445;-89
2021/03/24 11:37:27;;;;;;;41.33;24.88;;;12.10;99.90;;;;;;5007245;28;20042;-88
2021/03/24 11:40:03;;;;;;;49.60;24.40;;;12.30;99.90;;;;;;5012252;28;20042;-87
2021/03/24 11:42:34;;;;;;;48.95;23.67;;;12.30;99.90;;;;;;4996662;28;20041;-88
2021/03/24 11:45:07;;;;;;;39.67;22.05;;;12.40;99.90;;;;;;5009430;28;20048;-87
2021/03/24 11:47:45;;;;;;;41.60;23.42;;;12.40;99.90;;;;;;5006840;28;20092;-91
2021/03/24 11:50:27;;;;;;;43.58;21.23;;;12.60;99.90;;;;;;5004500;28;20045;-91
2021/03/24 11:53:19;;;;;;;45.03;25.27;;;12.60;99.90;;;;;;5020649;28;20046;-91
2021/03/24 11:56:04;;;;;;;48.35;25.13;;;12.70;99.90;;;;;;5008103;28;20042;-89
2021/03/24 11:58:44;;;;;;;34.13;23.80;;;12.70;99.90;;;;;;5003704;28;20043;-88
2021/03/24 12:01:21;;;;;;;39.95;25.75;;;12.70;99.90;;;;;;4987444;28;20042;-90
2021/03/24 12:03:50;;;;;;;46.53;26.17;;;12.70;99.90;;;;;;4993558;28;20046;-89
2021/03/24 12:06:43;;;;;;;44.67;24.92;;;12.80;99.90;;;;;;4998366;28;20417;-89
2021/03/24 12:09:19;;;;;;;48.35;26.20;;;12.90;99.90;;;;;;4992213;28;20045;-89
2021/03/24 12:11:45;;;;;;;42.80;25.88;;;13.00;99.90;;;;;;5000811;28;20514;-88
2021/03/24 12:14:24;;;;;;;43.50;26.70;;;13.00;99.90;;;;;;4962665;28;20113;-88
2021/03/24 12:16:59;;;;;;;48.30;25.58;;;13.20;99.90;;;;;;4975098;28;20050;-88
2021/03/24 12:19:32;;;;;;;40.97;24.85;;;13.20;99.90;;;;;;5002489;28;20038;-87
2021/03/24 12:22:20;;;;;;;41.55;23.80;;;13.40;99.90;;;;;;4989880;28;20045;-88
2021/03/24 12:24:50;;;;;;;45.80;26.60;;;13.60;99.90;;;;;;5004029;28;20057;-88
2021/03/24 12:27:26;;;;;;;40.25;22.73;;;13.60;99.90;;;;;;4993051;28;20041;-87
2021/03/24 12:30:18;;;;;;;41.78;23.75;;;13.70;99.90;;;;;;4992250;28;20035;-88
2021/03/24 12:32:44;;;;;;;45.05;25.08;;;13.80;99.90;;;;;;5001842;28;20050;-88
2021/03/24 12:35:28;;;;;;;44.35;23.42;;;13.90;99.90;;;;;;5009453;28;20087;-88
2021/03/24 12:38:06;;;;;;;41.33;24.48;;;14.00;99.90;;;;;;5011571;28;20045;-88
2021/03/24 12:40:32;;;;;;;41.60;24.23;;;14.10;99.90;;;;;;4996452;28;20055;-88
2021/03/24 12:43:18;;;;;;;37.92;23.95;;;14.20;99.90;;;;;;4995518;28;20633;-88
2021/03/24 12:45:44;;;;;;;35.08;21.80;;;14.50;99.90;;;;;;4992562;28;20042;-88
2021/03/24 12:48:12;;;;;;;45.33;26.42;;;14.50;99.10;;;;;;4994418;28;20056;-88
2021/03/24 12:51:09;;;;;;;49.85;25.83;;;14.50;99.90;;;;;;4987181;28;20034;-88
2021/03/24 12:53:49;;;;;;;42.70;25.17;;;14.40;99.90;;;;;;4975205;28;20050;-88
2021/03/24 12:56:48;;;;;;;40.38;24.92;;;14.50;99.90;;;;;;4992363;28;20043;-87
2021/03/24 12:59:39;;;;;;;44.15;22.23;;;14.70;99.90;;;;;;4978674;28;20461;-88
2021/03/24 13:02:42;;;;;;;44.20;24.25;;;15.10;99.30;;;;;;5012028;28;20088;-89
2021/03/24 13:05:21;;;;;;;44.47;22.95;;;15.50;99.20;;;;;;4993531;28;20057;-89
2021/03/24 13:07:56;;;;;;;42.83;25.17;;;15.70;97.40;;;;;;5011052;28;20042;-89
2021/03/24 13:10:44;;;;;;;44.75;23.40;;;15.90;96.60;;;;;;5010001;28;20485;-88
2021/03/24 13:13:24;;;;;;;40.25;22.02;;;16.10;98.00;;;;;;4997165;28;20045;-88
2021/03/24 13:16:02;;;;;;;35.85;21.20;;;16.50;96.00;;;;;;5009370;28;20042;-88
2021/03/24 13:18:44;;;;;;;36.72;22.75;;;16.50;90.00;;;;;;5011505;28;20066;-88
2021/03/24 13:21:41;;;;;;;39.47;22.75;;;16.50;93.40;;;;;;4993949;28;20049;-88
2021/03/24 13:24:26;;;;;;;32.60;18.63;;;16.70;92.10;;;;;;4993917;28;20034;-89
2021/03/24 13:26:57;;;;;;;30.55;17.50;;;16.70;86.90;;;;;;4976903;28;20058;-89
2021/03/24 13:29:23;;;;;;;30.02;18.08;;;16.60;82.50;;;;;;4992884;28;20399;-89
2021/03/24 13:32:19;;;;;;;34.35;18.02;;;16.50;82.40;;;;;;4990375;28;20065;-88
2021/03/24 13:34:56;;;;;;;31.35;18.17;;;16.50;82.60;;;;;;5012186;28;20098;-88
2021/03/24 13:37:25;;;;;;;27.98;16.55;;;16.40;82.50;;;;;;5025692;28;20124;-87
2021/03/24 13:39:53;;;;;;;26.90;15.73;;;16.40;76.90;;;;;;4995557;28;20038;-89
2021/03/24 13:42:57;;;;;;;33.97;17.75;;;16.10;81.10;;;;;;4994867;28;20055;-90
2021/03/24 13:45:34;;;;;;;29.05;17.23;;;15.90;79.10;;;;;;5003553;28;20042;-89
2021/03/24 13:48:16;;;;;;;30.90;16.92;;;15.80;80.80;;;;;;5003777;28;20049;-88
2021/03/24 13:50:55;;;;;;;34.78;17.33;;;15.70;82.10;;;;;;4990340;28;20409;-89
2021/03/24 13:53:46;;;;;;;34.90;18.58;;;15.50;83.80;;;;;;4992086;28;20053;-88
2021/03/24 13:56:37;;;;;;;32.05;17.65;;;15.70;81.20;;;;;;5009397;28;20493;-89
2021/03/24 13:59:24;;;;;;;33.08;16.52;;;16.00;80.50;;;;;;4992847;28;20591;-88
2021/03/24 14:01:53;;;;;;;28.50;16.73;;;16.30;78.00;;;;;;4989926;28;20046;-90
2021/03/24 14:04:25;;;;;;;28.30;16.98;;;16.40;78.10;;;;;;4999648;28;20639;-90
2021/03/24 14:07:28;;;;;;;26.63;17.52;;;16.70;75.10;;;;;;5003389;28;20434;-89
2021/03/24 14:10:23;;;;;;;34.55;18.25;;;16.80;78.70;;;;;;5006578;28;20043;-89
2021/03/24 14:12:55;;;;;;;27.63;16.85;;;16.80;79.30;;;;;;4988752;28;20042;-88
2021/03/24 14:15:42;;;;;;;26.13;16.73;;;16.70;73.80;;;;;;4987129;28;20038;-89
2021/03/24 14:18:26;;;;;;;30.50;16.63;;;16.80;75.00;;;;;;5010221;28;20042;-89
2021/03/24 14:21:23;;;;;;;30.17;18.23;;;16.80;70.90;;;;;;5004550;28;20073;-88
2021/03/24 14:24:24;;;;;;;40.22;17.58;;;16.20;78.20;;;;;;4987866;28;20517;-88
2021/03/24 14:26:49;;;;;;;28.20;16.23;;;16.10;76.70;;;;;;5008397;28;20045;-88
2021/03/24 14:30:04;;;;;;;32.63;17.08;;;16.00;82.10;;;;;;5007870;28;20041;-88